createdAt,value
2018-03-03T00:02:02.624Z,1.60
2018-03-03T00:04:30.141Z,1.60
2018-03-03T00:06:57.685Z,1.60
2018-03-03T00:09:25.263Z,1.60
2018-03-03T00:11:52.791Z,1.60
2018-03-03T00:14:20.324Z,1.60
2018-03-03T00:16:47.833Z,1.60
2018-03-03T00:19:15.363Z,1.60
2018-03-03T00:21:42.860Z,1.60
2018-03-03T00:24:10.375Z,1.60
2018-03-03T00:26:37.921Z,1.50
2018-03-03T00:29:05.427Z,1.50
2018-03-03T00:31:32.941Z,1.50
2018-03-03T00:34:00.503Z,1.50
2018-03-03T00:36:28.022Z,1.40
2018-03-03T00:38:56.338Z,1.40
2018-03-03T00:41:23.894Z,1.40
2018-03-03T00:43:51.388Z,1.30
2018-03-03T00:46:18.909Z,1.30
2018-03-03T00:48:46.439Z,1.30
2018-03-03T00:51:14.006Z,1.20
2018-03-03T00:53:41.533Z,1.20
2018-03-03T00:56:09.803Z,1.10
2018-03-03T00:58:37.337Z,1.10
2018-03-03T01:01:04.863Z,1.10
2018-03-03T01:03:32.380Z,1.00
2018-03-03T01:06:00.696Z,1.00
2018-03-03T01:08:28.202Z,1.00
2018-03-03T01:10:55.735Z,1.00
2018-03-03T01:13:23.247Z,1.00
2018-03-03T01:15:51.519Z,0.90
2018-03-03T01:18:19.823Z,0.90
2018-03-03T01:20:47.336Z,0.90
2018-03-03T01:23:15.667Z,0.90
2018-03-03T01:25:43.164Z,0.90
2018-03-03T01:28:10.682Z,0.80
2018-03-03T01:30:38.182Z,0.80
2018-03-03T01:33:05.710Z,0.70
2018-03-03T01:35:33.220Z,0.70
2018-03-03T01:38:00.740Z,0.70
2018-03-03T01:40:28.252Z,0.60
2018-03-03T01:42:55.780Z,0.50
2018-03-03T01:45:23.288Z,0.50
2018-03-03T01:47:50.830Z,0.50
2018-03-03T01:50:18.371Z,0.40
2018-03-03T01:52:45.816Z,0.20
2018-03-03T01:55:14.052Z,0.00
2018-03-03T01:57:41.499Z,0.00
2018-03-03T02:00:08.988Z,0.10
2018-03-03T02:02:36.431Z,0.00
2018-03-03T02:05:03.923Z,0.00
2018-03-03T02:07:31.382Z,-0.10
2018-03-03T02:09:58.879Z,-0.10
2018-03-03T02:12:26.338Z,-0.10
2018-03-03T02:14:53.809Z,-0.10
2018-03-03T02:17:21.298Z,-0.10
2018-03-03T02:19:48.756Z,0.00
2018-03-03T02:22:16.250Z,0.10
2018-03-03T02:24:43.713Z,0.20
2018-03-03T02:27:11.193Z,0.20
2018-03-03T02:29:38.652Z,0.20
2018-03-03T02:32:06.117Z,0.20
2018-03-03T02:34:33.595Z,0.30
2018-03-03T02:37:01.098Z,0.20
2018-03-03T02:39:28.542Z,0.20
2018-03-03T02:41:55.991Z,0.20
2018-03-03T02:44:23.470Z,0.20
2018-03-03T02:46:50.928Z,0.20
2018-03-03T02:49:18.408Z,0.10
2018-03-03T02:51:46.636Z,0.00
2018-03-03T02:54:14.140Z,-0.10
2018-03-03T02:56:41.611Z,-0.10
2018-03-03T02:59:09.841Z,-0.20
2018-03-03T03:01:37.329Z,-0.20
2018-03-03T03:04:05.544Z,-0.20
2018-03-03T03:06:33.027Z,-0.30
2018-03-03T03:09:00.491Z,-0.20
2018-03-03T03:11:27.986Z,-0.20
2018-03-03T03:13:56.229Z,-0.10
2018-03-03T03:16:23.703Z,-0.10
2018-03-03T03:18:51.952Z,-0.10
2018-03-03T03:21:19.490Z,-0.20
2018-03-03T03:23:46.975Z,-0.10
2018-03-03T03:26:14.450Z,-0.20
2018-03-03T03:28:41.932Z,-0.20
2018-03-03T03:31:09.413Z,-0.20
2018-03-03T03:33:36.891Z,-0.20
2018-03-03T03:36:04.359Z,-0.20
2018-03-03T03:38:31.846Z,-0.30
2018-03-03T03:41:00.068Z,-0.20
2018-03-03T03:43:27.518Z,-0.30
2018-03-03T03:45:54.999Z,-0.30
2018-03-03T03:48:22.480Z,-0.30
2018-03-03T03:50:49.959Z,-0.30
2018-03-03T03:53:17.436Z,-0.30
2018-03-03T03:55:44.927Z,-0.30
2018-03-03T03:58:12.384Z,-0.30
2018-03-03T04:00:39.891Z,-0.30
2018-03-03T04:03:07.360Z,-0.30
2018-03-03T04:05:34.820Z,-0.30
2018-03-03T04:08:02.310Z,-0.30
2018-03-03T04:10:29.775Z,-0.20
2018-03-03T04:12:57.261Z,-0.20
2018-03-03T04:15:25.495Z,-0.30
2018-03-03T04:17:52.978Z,-0.30
2018-03-03T04:20:21.249Z,-0.30
2018-03-03T04:22:48.788Z,-0.30
2018-03-03T04:25:16.296Z,-0.30
2018-03-03T04:27:43.848Z,-0.30
2018-03-03T04:30:12.111Z,-0.40
2018-03-03T04:32:40.387Z,-0.40
2018-03-03T04:35:08.720Z,-0.40
2018-03-03T04:37:36.224Z,-0.40
2018-03-03T04:40:04.521Z,-0.40
2018-03-03T04:42:32.070Z,-0.40
2018-03-03T04:44:59.596Z,-0.40
2018-03-03T04:47:27.096Z,-0.40
2018-03-03T04:49:54.638Z,-0.40
2018-03-03T04:52:22.932Z,-0.50
2018-03-03T04:54:50.451Z,-0.40
2018-03-03T04:57:18.762Z,-0.50
2018-03-03T04:59:52.028Z,-0.50
2018-03-03T05:05:23.616Z,-0.50
2018-03-03T05:07:56.073Z,-0.60
2018-03-03T05:10:26.827Z,-0.60
2018-03-03T05:12:55.323Z,-0.60
2018-03-03T05:15:28.695Z,-0.70
2018-03-03T05:17:56.237Z,-0.70
2018-03-03T05:23:43.325Z,-0.70
2018-03-03T05:26:13.332Z,-0.80
2018-03-03T05:31:51.053Z,-0.80
2018-03-03T05:34:24.408Z,-0.80
2018-03-03T05:36:57.572Z,-0.90
2018-03-03T05:39:31.619Z,-0.90
2018-03-03T05:45:06.569Z,-0.90
2018-03-03T05:47:40.771Z,-0.90
2018-03-03T05:50:09.916Z,-1.00
2018-03-03T05:55:40.729Z,-1.00
2018-03-03T05:58:13.880Z,-1.00
2018-03-03T06:03:52.257Z,-1.00
2018-03-03T06:09:20.090Z,-1.00
2018-03-03T06:11:47.608Z,-1.00
2018-03-03T06:14:15.190Z,-1.00
2018-03-03T06:16:42.677Z,-1.00
2018-03-03T06:19:10.975Z,-1.00
2018-03-03T06:21:39.247Z,-1.00
2018-03-03T06:24:07.671Z,-1.00
2018-03-03T06:26:35.194Z,-1.00
2018-03-03T06:29:02.715Z,-1.00
2018-03-03T06:31:30.231Z,-1.00
2018-03-03T06:33:57.767Z,-1.00
2018-03-03T06:36:25.354Z,-1.00
2018-03-03T06:38:52.875Z,-1.00
2018-03-03T06:41:21.177Z,-1.00
2018-03-03T06:43:48.641Z,-1.00
2018-03-03T06:46:16.138Z,-1.00
2018-03-03T06:48:43.589Z,-1.00
2018-03-03T06:51:11.031Z,-1.00
2018-03-03T06:53:38.519Z,-1.00
2018-03-03T06:56:06.787Z,-0.90
2018-03-03T06:58:34.263Z,-0.90
2018-03-03T07:01:02.493Z,-0.80
2018-03-03T07:03:29.984Z,-0.80
2018-03-03T07:05:58.196Z,-0.80
2018-03-03T07:08:25.691Z,-0.80
2018-03-03T07:10:53.143Z,-0.80
2018-03-03T07:13:20.619Z,-0.80
2018-03-03T07:15:48.078Z,-0.70
2018-03-03T07:18:16.352Z,-0.60
2018-03-03T07:20:43.853Z,-0.60
2018-03-03T07:23:11.300Z,-0.60
2018-03-03T07:25:38.810Z,-0.60
2018-03-03T07:28:06.298Z,-0.60
2018-03-03T07:30:34.546Z,-0.50
2018-03-03T07:33:02.038Z,-0.60
2018-03-03T07:35:29.498Z,-0.50
2018-03-03T07:37:56.988Z,-0.50
2018-03-03T07:40:24.443Z,-0.40
2018-03-03T07:42:51.934Z,-0.40
2018-03-03T07:45:19.393Z,-0.30
2018-03-03T07:47:46.883Z,-0.20
2018-03-03T07:50:14.355Z,-0.10
2018-03-03T07:52:41.807Z,0.00
2018-03-03T07:55:09.295Z,0.10
2018-03-03T07:57:36.743Z,0.10
2018-03-03T08:00:04.225Z,0.30
2018-03-03T08:02:31.687Z,0.30
2018-03-03T08:04:59.225Z,0.50
2018-03-03T08:07:26.738Z,0.60
2018-03-03T08:09:54.276Z,0.80
2018-03-03T08:12:22.566Z,1.00
2018-03-03T08:14:50.118Z,1.00
2018-03-03T08:17:17.621Z,1.10
2018-03-03T08:19:45.119Z,1.10
2018-03-03T08:22:13.433Z,1.30
2018-03-03T08:24:40.979Z,1.30
2018-03-03T08:27:08.527Z,1.40
2018-03-03T08:29:36.053Z,1.50
2018-03-03T08:32:03.568Z,1.50
2018-03-03T08:34:31.107Z,1.60
2018-03-03T08:36:58.661Z,1.70
2018-03-03T08:39:26.198Z,1.80
2018-03-03T08:41:54.480Z,2.00
2018-03-03T08:44:22.775Z,2.00
2018-03-03T08:46:50.303Z,2.00
2018-03-03T08:49:17.836Z,2.10
2018-03-03T08:51:45.351Z,2.30
2018-03-03T08:54:12.856Z,2.40
2018-03-03T08:56:40.384Z,2.50
2018-03-03T08:59:07.891Z,2.70
2018-03-03T09:01:36.191Z,3.10
2018-03-03T09:04:03.688Z,3.10
2018-03-03T09:06:31.212Z,3.10
2018-03-03T09:08:58.718Z,3.20
2018-03-03T09:11:26.236Z,3.30
2018-03-03T09:13:53.782Z,3.20
2018-03-03T09:16:21.306Z,3.30
2018-03-03T09:18:49.629Z,3.40
2018-03-03T09:21:17.640Z,3.40
2018-03-03T09:23:45.180Z,3.60
2018-03-03T09:26:12.687Z,3.70
2018-03-03T09:28:40.972Z,4.00
2018-03-03T09:31:08.479Z,4.00
2018-03-03T09:33:36.019Z,4.20
2018-03-03T09:36:03.568Z,4.40
2018-03-03T09:38:31.089Z,4.50
2018-03-03T09:40:59.369Z,4.90
2018-03-03T09:43:27.654Z,5.10
2018-03-03T09:45:55.199Z,5.00
2018-03-03T09:48:23.478Z,5.50
2018-03-03T09:50:51.743Z,5.60
2018-03-03T09:53:20.048Z,5.80
2018-03-03T09:55:47.726Z,5.70
2018-03-03T09:58:15.235Z,5.90
2018-03-03T10:00:43.503Z,6.20
2018-03-03T10:03:11.020Z,6.10
2018-03-03T10:05:38.528Z,6.30
2018-03-03T10:08:06.815Z,6.60
2018-03-03T10:10:35.082Z,6.70
2018-03-03T10:13:03.374Z,6.90
2018-03-03T10:15:30.871Z,6.90
2018-03-03T10:17:58.408Z,7.00
2018-03-03T10:20:25.915Z,7.20
2018-03-03T10:22:53.404Z,7.30
2018-03-03T10:25:20.954Z,7.50
2018-03-03T10:27:49.233Z,7.80
2018-03-03T10:30:16.759Z,7.80
2018-03-03T10:32:44.274Z,7.90
2018-03-03T10:35:11.805Z,8.00
2018-03-03T10:37:39.331Z,8.10
2018-03-03T10:40:06.868Z,8.20
2018-03-03T10:42:34.373Z,8.40
2018-03-03T10:45:02.692Z,8.60
2018-03-03T10:47:30.224Z,8.60
2018-03-03T10:49:57.760Z,8.80
2018-03-03T10:52:26.039Z,9.20
2018-03-03T10:54:54.351Z,9.40
2018-03-03T10:57:21.864Z,9.40
2018-03-03T10:59:50.178Z,9.80
2018-03-03T11:02:17.734Z,9.80
2018-03-03T11:04:45.249Z,10.00
2018-03-03T11:07:13.625Z,10.30
2018-03-03T11:09:41.099Z,10.30
2018-03-03T11:12:09.413Z,10.50
2018-03-03T11:14:36.951Z,10.50
2018-03-03T11:17:04.557Z,10.50
2018-03-03T11:19:32.052Z,10.70
2018-03-03T11:21:59.579Z,10.90
2018-03-03T11:24:27.147Z,11.10
2018-03-03T11:26:55.428Z,11.40
2018-03-03T11:29:23.731Z,11.70
2018-03-03T11:31:51.242Z,11.70
2018-03-03T11:34:18.803Z,11.90
2018-03-03T11:36:46.325Z,12.20
2018-03-03T11:39:13.894Z,12.40
2018-03-03T11:41:41.436Z,12.50
2018-03-03T11:44:08.973Z,12.80
2018-03-03T11:46:37.249Z,13.00
2018-03-03T11:49:05.560Z,13.20
2018-03-03T11:51:33.087Z,13.20
2018-03-03T11:54:00.645Z,13.30
2018-03-03T11:56:28.174Z,13.20
2018-03-03T11:58:56.449Z,13.10
2018-03-03T12:01:25.018Z,13.20
2018-03-03T12:03:52.533Z,13.20
2018-03-03T12:06:20.060Z,13.40
2018-03-03T12:08:48.353Z,13.90
2018-03-03T12:11:15.885Z,13.90
2018-03-03T12:13:44.179Z,14.00
2018-03-03T12:16:12.493Z,14.30
2018-03-03T12:18:40.134Z,14.20
2018-03-03T12:21:07.652Z,14.60
2018-03-03T12:23:35.959Z,14.70
2018-03-03T12:26:03.472Z,14.70
2018-03-03T12:28:31.020Z,14.80
2018-03-03T12:30:58.542Z,15.00
2018-03-03T12:33:26.086Z,15.20
2018-03-03T12:35:53.631Z,15.20
2018-03-03T12:38:21.964Z,15.00
2018-03-03T12:40:49.470Z,15.00
2018-03-03T12:43:17.741Z,15.40
2018-03-03T12:45:46.047Z,15.60
2018-03-03T12:48:13.562Z,15.60
2018-03-03T12:50:41.104Z,15.80
2018-03-03T12:53:08.616Z,16.10
2018-03-03T12:55:36.160Z,16.30
2018-03-03T12:58:03.694Z,16.30
2018-03-03T13:00:32.002Z,15.50
2018-03-03T13:02:59.525Z,15.50
2018-03-03T13:05:27.803Z,15.40
2018-03-03T13:07:55.487Z,15.40
2018-03-03T13:10:23.001Z,15.60
2018-03-03T13:12:50.606Z,15.80
2018-03-03T13:15:18.898Z,16.00
2018-03-03T13:17:46.406Z,15.90
2018-03-03T13:20:15.500Z,16.40
2018-03-03T13:22:43.029Z,16.40
2018-03-03T13:25:10.557Z,16.60
2018-03-03T13:27:38.115Z,16.90
2018-03-03T13:30:05.683Z,16.80
2018-03-03T13:32:33.204Z,16.90
2018-03-03T13:35:01.489Z,17.40
2018-03-03T13:37:29.824Z,17.70
2018-03-03T13:39:57.346Z,17.70
2018-03-03T13:42:24.863Z,18.10
2018-03-03T13:44:53.180Z,18.50
2018-03-03T13:47:20.691Z,18.50
2018-03-03T13:49:49.106Z,18.90
2018-03-03T13:52:16.652Z,18.90
2018-03-03T13:54:44.942Z,18.40
2018-03-03T13:57:12.443Z,18.40
2018-03-03T13:59:40.010Z,18.00
2018-03-03T14:02:07.516Z,17.60
2018-03-03T14:04:35.044Z,17.80
2018-03-03T14:07:03.288Z,18.60
2018-03-03T14:09:30.766Z,18.60
2018-03-03T14:11:58.254Z,18.80
2018-03-03T14:14:25.769Z,18.80
2018-03-03T14:16:53.241Z,18.60
2018-03-03T14:19:22.319Z,17.50
2018-03-03T14:21:51.332Z,17.30
2018-03-03T14:24:18.860Z,17.30
2018-03-03T14:26:46.329Z,17.20
2018-03-03T14:29:13.816Z,17.10
2018-03-03T14:31:42.023Z,15.90
2018-03-03T14:34:09.533Z,15.90
2018-03-03T14:36:36.980Z,15.60
2018-03-03T14:39:04.480Z,15.20
2018-03-03T14:41:31.927Z,14.80
2018-03-03T14:43:59.410Z,14.40
2018-03-03T14:46:26.909Z,14.30
2018-03-03T14:48:55.116Z,13.90
2018-03-03T14:51:22.624Z,13.80
2018-03-03T14:53:50.085Z,13.60
2018-03-03T14:56:17.572Z,13.30
2018-03-03T14:58:45.816Z,13.10
2018-03-03T15:01:14.065Z,12.90
2018-03-03T15:03:41.580Z,12.80
2018-03-03T15:06:09.026Z,12.70
2018-03-03T15:08:37.243Z,12.30
2018-03-03T15:11:04.724Z,12.30
2018-03-03T15:13:32.238Z,12.20
2018-03-03T15:15:59.810Z,12.20
2018-03-03T15:18:27.324Z,12.20
2018-03-03T15:20:54.838Z,12.00
2018-03-03T15:23:22.368Z,11.90
2018-03-03T15:25:49.893Z,11.70
2018-03-03T15:28:17.453Z,11.60
2018-03-03T15:30:44.970Z,11.50
2018-03-03T15:33:12.516Z,11.40
2018-03-03T15:35:40.039Z,11.40
2018-03-03T15:38:08.362Z,11.10
2018-03-03T15:40:35.892Z,11.10
2018-03-03T15:43:03.448Z,11.00
2018-03-03T15:45:30.975Z,10.90
2018-03-03T15:47:59.313Z,10.80
2018-03-03T15:50:26.855Z,10.80
2018-03-03T15:52:54.361Z,10.80
2018-03-03T15:55:22.678Z,10.60
2018-03-03T15:57:50.205Z,10.60
2018-03-03T16:00:18.478Z,10.50
2018-03-03T16:02:46.789Z,10.40
2018-03-03T16:05:14.345Z,10.30
2018-03-03T16:07:41.865Z,10.30
2018-03-03T16:10:10.180Z,10.30
2018-03-03T16:12:37.688Z,10.20
2018-03-03T16:15:05.202Z,10.20
2018-03-03T16:17:32.736Z,10.10
2018-03-03T16:20:01.001Z,9.90
2018-03-03T16:22:29.286Z,9.80
2018-03-03T16:24:57.565Z,9.90
2018-03-03T16:27:25.116Z,9.90
2018-03-03T16:29:53.403Z,9.80
2018-03-03T16:32:20.943Z,9.80
2018-03-03T16:34:49.267Z,9.70
2018-03-03T16:37:16.775Z,9.70
2018-03-03T16:39:45.105Z,9.70
2018-03-03T16:42:12.603Z,9.70
2018-03-03T16:44:40.136Z,9.70
2018-03-03T16:47:07.806Z,9.60
2018-03-03T16:49:35.358Z,9.50
2018-03-03T16:52:02.862Z,9.40
2018-03-03T16:54:30.393Z,9.40
2018-03-03T16:56:58.664Z,9.30
2018-03-03T16:59:26.996Z,9.20
2018-03-03T17:01:54.506Z,9.30
2018-03-03T17:04:22.797Z,9.20
2018-03-03T17:06:51.092Z,9.10
2018-03-03T17:09:18.624Z,9.00
2018-03-03T17:11:46.931Z,8.90
2018-03-03T17:14:14.464Z,8.90
2018-03-03T17:16:41.993Z,8.90
2018-03-03T17:19:09.503Z,9.00
2018-03-03T17:21:37.029Z,8.90
2018-03-03T17:24:05.303Z,8.70
2018-03-03T17:26:33.607Z,8.50
2018-03-03T17:29:01.119Z,8.50
2018-03-03T17:31:28.654Z,8.30
2018-03-03T17:33:56.497Z,8.20
2018-03-03T17:36:24.016Z,8.20
2018-03-03T17:38:52.307Z,8.20
2018-03-03T17:41:19.838Z,8.20
2018-03-03T17:43:47.385Z,8.20
2018-03-03T17:46:14.890Z,8.20
2018-03-03T17:48:42.453Z,8.20
2018-03-03T17:51:09.974Z,8.20
2018-03-03T17:53:38.250Z,8.10
2018-03-03T17:56:06.540Z,8.00
2018-03-03T17:58:34.835Z,8.00
2018-03-03T18:01:02.389Z,8.00
2018-03-03T18:03:30.062Z,7.90
2018-03-03T18:05:57.608Z,7.90
2018-03-03T18:08:25.140Z,7.80
2018-03-03T18:10:55.196Z,7.90
2018-03-03T18:13:31.940Z,7.80
2018-03-03T18:16:00.259Z,7.90
2018-03-03T18:18:31.765Z,7.90
2018-03-03T18:21:00.061Z,7.70
2018-03-03T18:23:27.623Z,7.70
2018-03-03T18:25:55.171Z,7.70
2018-03-03T18:28:22.709Z,7.70
2018-03-03T18:30:50.975Z,7.60
2018-03-03T18:33:18.513Z,7.60
2018-03-03T18:35:46.039Z,7.60
2018-03-03T18:38:13.579Z,7.70
2018-03-03T18:40:41.112Z,7.60
2018-03-03T18:43:09.438Z,7.70
2018-03-03T18:45:36.972Z,7.70
2018-03-03T18:48:04.488Z,7.70
2018-03-03T18:50:32.044Z,7.70
2018-03-03T18:52:59.560Z,7.70
2018-03-03T18:55:27.102Z,7.70
2018-03-03T18:57:54.616Z,7.60
2018-03-03T19:00:22.175Z,7.60
2018-03-03T19:02:49.699Z,7.60
2018-03-03T19:05:17.237Z,7.70
2018-03-03T19:07:44.763Z,7.70
2018-03-03T19:10:12.265Z,7.70
2018-03-03T19:12:39.819Z,7.60
2018-03-03T19:15:07.380Z,7.60
2018-03-03T19:17:34.925Z,7.60
2018-03-03T19:20:02.433Z,7.50
2018-03-03T19:22:29.993Z,7.40
2018-03-03T19:24:58.604Z,7.20
2018-03-03T19:27:26.932Z,7.20
2018-03-03T19:29:54.448Z,7.20
2018-03-03T19:32:22.777Z,7.10
2018-03-03T19:34:51.556Z,7.10
2018-03-03T19:37:19.106Z,7.00
2018-03-03T19:39:46.642Z,6.90
2018-03-03T19:42:14.392Z,6.80
2018-03-03T19:44:42.686Z,6.80
2018-03-03T19:47:10.251Z,6.80
2018-03-03T19:49:37.767Z,6.80
2018-03-03T19:52:06.081Z,6.60
2018-03-03T19:54:33.648Z,6.60
2018-03-03T19:57:01.180Z,6.50
2018-03-03T19:59:28.716Z,6.50
2018-03-03T20:01:56.270Z,6.50
2018-03-03T20:04:23.805Z,6.40
2018-03-03T20:06:51.369Z,6.40
2018-03-03T20:09:19.029Z,6.40
2018-03-03T20:11:46.544Z,6.40
2018-03-03T20:14:14.101Z,6.40
2018-03-03T20:16:41.625Z,6.40
2018-03-03T20:19:09.217Z,6.40
2018-03-03T20:21:36.725Z,6.40
2018-03-03T20:24:04.241Z,6.40
2018-03-03T20:26:31.777Z,6.40
2018-03-03T20:29:00.078Z,6.30
2018-03-03T20:31:27.578Z,6.30
2018-03-03T20:33:55.156Z,6.20
2018-03-03T20:36:22.702Z,6.20
2018-03-03T20:38:50.252Z,6.10
2018-03-03T20:41:17.811Z,6.10
2018-03-03T20:43:45.369Z,6.10
2018-03-03T20:46:12.887Z,6.20
2018-03-03T20:48:40.418Z,6.20
2018-03-03T20:51:08.733Z,6.20
2018-03-03T20:53:36.253Z,6.20
2018-03-03T20:56:03.804Z,6.20
2018-03-03T20:58:32.097Z,6.20
2018-03-03T21:00:59.655Z,6.20
2018-03-03T21:03:27.191Z,6.20
2018-03-03T21:05:55.492Z,6.00
2018-03-03T21:08:23.033Z,6.00
2018-03-03T21:10:50.538Z,6.00
2018-03-03T21:13:18.125Z,6.00
2018-03-03T21:15:45.650Z,5.90
2018-03-03T21:18:13.181Z,5.90
2018-03-03T21:20:40.710Z,5.90
2018-03-03T21:23:09.038Z,5.90
2018-03-03T21:25:36.557Z,5.90
2018-03-03T21:28:04.070Z,5.90
2018-03-03T21:30:31.629Z,5.90
2018-03-03T21:32:59.172Z,5.90
2018-03-03T21:35:26.708Z,6.00
2018-03-03T21:37:54.240Z,6.00
2018-03-03T21:40:22.525Z,6.00
2018-03-03T21:42:50.049Z,6.00
2018-03-03T21:45:17.586Z,6.00
2018-03-03T21:47:45.144Z,6.00
2018-03-03T21:50:12.650Z,6.00
2018-03-03T21:52:40.979Z,6.10
2018-03-03T21:55:08.505Z,6.10
2018-03-03T21:57:36.045Z,6.10
2018-03-03T22:00:04.332Z,6.10
2018-03-03T22:02:31.841Z,6.10
2018-03-03T22:04:59.387Z,6.10
2018-03-03T22:07:26.913Z,6.10
2018-03-03T22:09:54.425Z,6.00
2018-03-03T22:12:22.741Z,6.00
2018-03-03T22:14:50.264Z,6.00
2018-03-03T22:17:17.796Z,6.00
2018-03-03T22:19:45.298Z,6.00
2018-03-03T22:22:13.610Z,6.00
2018-03-03T22:24:41.120Z,6.00
2018-03-03T22:27:09.448Z,6.10
2018-03-03T22:29:36.961Z,6.10
2018-03-03T22:32:05.258Z,6.10
2018-03-03T22:34:32.800Z,6.00
2018-03-03T22:37:01.073Z,6.00
2018-03-03T22:39:29.377Z,6.00
2018-03-03T22:41:56.891Z,5.90
2018-03-03T22:44:24.435Z,6.00
2018-03-03T22:46:52.733Z,5.90
2018-03-03T22:49:21.012Z,5.90
2018-03-03T22:51:49.312Z,5.80
2018-03-03T22:54:16.848Z,5.80
2018-03-03T22:56:45.169Z,5.70
2018-03-03T22:59:12.699Z,5.70
2018-03-03T23:01:40.230Z,5.60
2018-03-03T23:04:08.540Z,5.60
2018-03-03T23:06:36.106Z,5.60
2018-03-03T23:09:03.658Z,5.60
2018-03-03T23:11:31.165Z,5.70
2018-03-03T23:13:58.677Z,5.70
2018-03-03T23:16:26.216Z,5.70
2018-03-03T23:18:53.750Z,5.70
2018-03-03T23:21:21.310Z,5.80
2018-03-03T23:23:48.820Z,5.70
2018-03-03T23:26:16.370Z,5.70
2018-03-03T23:28:43.889Z,5.70
2018-03-03T23:31:12.205Z,5.80
2018-03-03T23:33:39.862Z,5.80
2018-03-03T23:36:07.387Z,5.70
2018-03-03T23:38:35.678Z,5.50
2018-03-03T23:41:03.209Z,5.50
2018-03-03T23:43:31.472Z,5.40
2018-03-03T23:45:59.026Z,5.40
2018-03-03T23:48:26.528Z,5.40
2018-03-03T23:50:54.071Z,5.40
2018-03-03T23:53:22.341Z,5.40
2018-03-03T23:55:50.625Z,5.50
2018-03-03T23:58:18.904Z,5.50
